sensor_id;sensor_type;location;lat;lon;timestamp;pressure;altitude;pressure_sealevel;temperature;humidity
46408;BME280;32110;45.724;21.276;2022-10-16T02:08:42;101187.03;;;9.53;nan
46408;BME280;32110;45.724;21.276;2022-10-16T02:11:09;101188.63;;;9.54;nan
46408;BME280;32110;45.724;21.276;2022-10-16T06:49:26;101405.81;;;10.31;nan
46408;BME280;32110;45.724;21.276;2022-10-16T10:39:36;101479.75;;;18.67;nan
46408;BME280;32110;45.724;21.276;2022-10-16T10:50:45;101431.25;;;19.02;nan
46408;BME280;32110;45.724;21.276;2022-10-16T11:04:19;101420.78;;;19.33;nan
46408;BME280;32110;45.724;21.276;2022-10-16T11:06:59;101407.44;;;19.38;nan
46408;BME280;32110;45.724;21.276;2022-10-16T11:14:58;101417.94;;;19.50;nan
46408;BME280;32110;45.724;21.276;2022-10-16T11:20:18;101405.16;;;19.67;nan
46408;BME280;32110;45.724;21.276;2022-10-16T11:30:58;101392.16;;;19.81;nan
46408;BME280;32110;45.724;21.276;2022-10-16T11:36:23;101412.78;;;19.96;nan
46408;BME280;32110;45.724;21.276;2022-10-16T11:39:08;101413.34;;;19.98;nan
46408;BME280;32110;45.724;21.276;2022-10-16T11:41:39;101414.97;;;20.09;nan
46408;BME280;32110;45.724;21.276;2022-10-16T11:52:11;101404.84;;;20.22;nan
46408;BME280;32110;45.724;21.276;2022-10-16T11:54:56;101399.75;;;20.25;nan
46408;BME280;32110;45.724;21.276;2022-10-16T11:57:27;101344.94;;;20.33;nan
46408;BME280;32110;45.724;21.276;2022-10-16T12:00:20;101411.81;;;20.38;nan
46408;BME280;32110;45.724;21.276;2022-10-16T12:10:47;101412.84;;;20.11;nan
46408;BME280;32110;45.724;21.276;2022-10-16T12:13:35;101405.88;;;20.15;nan
46408;BME280;32110;45.724;21.276;2022-10-16T12:16:20;101400.84;;;20.24;nan
46408;BME280;32110;45.724;21.276;2022-10-16T12:18:47;101398.44;;;20.38;nan
46408;BME280;32110;45.724;21.276;2022-10-16T12:23:49;101423.63;;;20.63;nan
46408;BME280;32110;45.724;21.276;2022-10-16T12:26:27;101433.81;;;20.60;nan
46408;BME280;32110;45.724;21.276;2022-10-16T12:31:19;101402.50;;;20.76;nan
46408;BME280;32110;45.724;21.276;2022-10-16T12:34:23;101416.97;;;20.86;nan
46408;BME280;32110;45.724;21.276;2022-10-16T12:36:50;101406.50;;;20.89;nan
46408;BME280;32110;45.724;21.276;2022-10-16T12:39:23;101420.41;;;20.96;nan
46408;BME280;32110;45.724;21.276;2022-10-16T12:42:03;101419.34;;;21.02;nan
46408;BME280;32110;45.724;21.276;2022-10-16T12:44:34;101408.09;;;21.06;nan
46408;BME280;32110;45.724;21.276;2022-10-16T12:47:00;101413.97;;;21.08;nan
46408;BME280;32110;45.724;21.276;2022-10-16T12:51:54;101409.16;;;21.15;nan
46408;BME280;32110;45.724;21.276;2022-10-16T12:54:36;101421.19;;;21.17;nan
46408;BME280;32110;45.724;21.276;2022-10-16T13:10:34;101418.28;;;20.98;nan
46408;BME280;32110;45.724;21.276;2022-10-16T13:29:01;101398.44;;;21.04;nan
46408;BME280;32110;45.724;21.276;2022-10-16T13:31:27;101418.53;;;21.17;nan
46408;BME280;32110;45.724;21.276;2022-10-16T13:36:26;101416.63;;;21.23;nan
46408;BME280;32110;45.724;21.276;2022-10-16T13:39:15;101430.56;;;21.15;nan
46408;BME280;32110;45.724;21.276;2022-10-16T13:41:43;101421.72;;;21.19;nan
46408;BME280;32110;45.724;21.276;2022-10-16T13:44:14;101410.47;;;21.22;nan
46408;BME280;32110;45.724;21.276;2022-10-16T13:46:41;101415.28;;;21.25;nan
46408;BME280;32110;45.724;21.276;2022-10-16T13:49:15;101433.22;;;21.30;nan
46408;BME280;32110;45.724;21.276;2022-10-16T13:51:47;101469.66;;;21.26;nan
46408;BME280;32110;45.724;21.276;2022-10-16T13:54:18;101422.81;;;21.13;nan
46408;BME280;32110;45.724;21.276;2022-10-16T13:56:43;101417.44;;;21.13;nan
46408;BME280;32110;45.724;21.276;2022-10-16T13:59:25;101422.81;;;21.13;nan
46408;BME280;32110;45.724;21.276;2022-10-16T14:01:53;101424.13;;;21.16;nan
46408;BME280;32110;45.724;21.276;2022-10-16T14:04:21;101426.25;;;21.19;nan
46408;BME280;32110;45.724;21.276;2022-10-16T14:06:49;101408.03;;;21.21;nan
46408;BME280;32110;45.724;21.276;2022-10-16T14:09:31;101427.88;;;21.25;nan
46408;BME280;32110;45.724;21.276;2022-10-16T14:12:00;101437.50;;;21.26;nan
46408;BME280;32110;45.724;21.276;2022-10-16T14:14:41;101432.97;;;21.27;nan
46408;BME280;32110;45.724;21.276;2022-10-16T14:24:47;101419.28;;;21.28;nan
46408;BME280;32110;45.724;21.276;2022-10-16T14:30:23;101418.50;;;21.22;nan
46408;BME280;32110;45.724;21.276;2022-10-16T14:32:59;101426.53;;;21.22;nan
46408;BME280;32110;45.724;21.276;2022-10-16T14:35:40;101426.53;;;21.22;nan
46408;BME280;32110;45.724;21.276;2022-10-16T14:38:14;101394.41;;;21.17;nan
46408;BME280;32110;45.724;21.276;2022-10-16T14:40:47;101365.22;;;21.16;nan
46408;BME280;32110;45.724;21.276;2022-10-16T14:43:24;101456.03;;;21.07;nan
46408;BME280;32110;45.724;21.276;2022-10-16T14:45:53;101417.72;;;21.07;nan
46408;BME280;32110;45.724;21.276;2022-10-16T14:50:46;101437.81;;;20.99;nan
46408;BME280;32110;45.724;21.276;2022-10-16T14:55:38;101459.50;;;20.92;nan
46408;BME280;32110;45.724;21.276;2022-10-16T14:58:03;101436.22;;;20.88;nan
46408;BME280;32110;45.724;21.276;2022-10-16T15:00:29;101416.16;;;20.90;nan
46408;BME280;32110;45.724;21.276;2022-10-16T15:02:54;101418.56;;;20.87;nan
46408;BME280;32110;45.724;21.276;2022-10-16T15:05:25;101415.09;;;20.81;nan
46408;BME280;32110;45.724;21.276;2022-10-16T15:07:52;101402.22;;;20.73;nan
46408;BME280;32110;45.724;21.276;2022-10-16T15:10:20;101427.94;;;20.69;nan
46408;BME280;32110;45.724;21.276;2022-10-16T15:12:46;101408.66;;;20.67;nan
46408;BME280;32110;45.724;21.276;2022-10-16T15:15:29;101423.09;;;20.60;nan
46408;BME280;32110;45.724;21.276;2022-10-16T15:17:56;101389.09;;;20.51;nan
46408;BME280;32110;45.724;21.276;2022-10-16T15:20:28;101435.66;;;20.50;nan
46408;BME280;32110;45.724;21.276;2022-10-16T15:22:55;101414.75;;;20.42;nan
46408;BME280;32110;45.724;21.276;2022-10-16T15:25:41;101401.13;;;20.38;nan
46408;BME280;32110;45.724;21.276;2022-10-16T15:28:08;101404.84;;;20.32;nan
46408;BME280;32110;45.724;21.276;2022-10-16T15:30:34;101407.25;;;20.28;nan
46408;BME280;32110;45.724;21.276;2022-10-16T15:33:01;101431.59;;;20.22;nan
46408;BME280;32110;45.724;21.276;2022-10-16T15:35:27;101430.25;;;20.14;nan
46408;BME280;32110;45.724;21.276;2022-10-16T15:37:52;101438.75;;;20.06;nan
46408;BME280;32110;45.724;21.276;2022-10-16T15:40:18;101429.63;;;19.96;nan
46408;BME280;32110;45.724;21.276;2022-10-16T15:42:44;101437.88;;;19.85;nan
46408;BME280;32110;45.724;21.276;2022-10-16T15:45:11;101450.66;;;19.77;nan
46408;BME280;32110;45.724;21.276;2022-10-16T15:47:36;101423.88;;;19.67;nan
46408;BME280;32110;45.724;21.276;2022-10-16T15:50:03;101477.28;;;19.57;nan
46408;BME280;32110;45.724;21.276;2022-10-16T15:52:29;101455.06;;;19.51;nan
46408;BME280;32110;45.724;21.276;2022-10-16T15:54:56;101446.19;;;19.41;nan
46408;BME280;32110;45.724;21.276;2022-10-16T15:57:22;101485.34;;;19.25;nan
46408;BME280;32110;45.724;21.276;2022-10-16T15:59:49;101454.34;;;19.19;nan
46408;BME280;32110;45.724;21.276;2022-10-16T16:02:14;101459.59;;;19.08;nan
46408;BME280;32110;45.724;21.276;2022-10-16T16:09:32;101516.25;;;18.83;nan
46408;BME280;32110;45.724;21.276;2022-10-16T16:11:58;101506.25;;;18.74;nan
46408;BME280;32110;45.724;21.276;2022-10-16T16:16:56;101476.53;;;18.65;nan
46408;BME280;32110;45.724;21.276;2022-10-16T16:19:21;101463.91;;;18.55;nan
46408;BME280;32110;45.724;21.276;2022-10-16T16:21:48;101398.97;;;18.39;nan
46408;BME280;32110;45.724;21.276;2022-10-16T16:26:39;101490.28;;;18.24;nan
46408;BME280;32110;45.724;21.276;2022-10-16T16:29:09;101490.94;;;18.15;nan
46408;BME280;32110;45.724;21.276;2022-10-16T16:31:37;101504.16;;;18.04;nan
46408;BME280;32110;45.724;21.276;2022-10-16T16:53:34;101671.72;;;16.69;nan
46408;BME280;32110;45.724;21.276;2022-10-16T19:44:03;101735.34;;;12.67;nan
